sensor_id;sensor_type;location;lat;lon;timestamp;P1;durP1;ratioP1;P2;durP2;ratioP2
57309;SDS011;43153;50.984;18.204;2023-04-29T00:00:17;18.10;;;7.50;;
57309;SDS011;43153;50.984;18.204;2023-04-29T00:02:42;17.00;;;7.00;;
57309;SDS011;43153;50.984;18.204;2023-04-29T00:05:08;18.30;;;6.80;;
57309;SDS011;43153;50.984;18.204;2023-04-29T00:07:34;17.70;;;7.30;;
57309;SDS011;43153;50.984;18.204;2023-04-29T00:10:01;18.00;;;8.30;;
57309;SDS011;43153;50.984;18.204;2023-04-29T00:12:27;18.00;;;7.70;;
57309;SDS011;43153;50.984;18.204;2023-04-29T00:14:57;16.20;;;7.40;;
57309;SDS011;43153;50.984;18.204;2023-04-29T00:17:25;17.90;;;6.80;;
57309;SDS011;43153;50.984;18.204;2023-04-29T00:19:51;18.20;;;7.60;;
57309;SDS011;43153;50.984;18.204;2023-04-29T00:22:17;15.90;;;7.30;;
57309;SDS011;43153;50.984;18.204;2023-04-29T00:24:43;13.30;;;6.70;;
57309;SDS011;43153;50.984;18.204;2023-04-29T00:27:09;22.90;;;7.20;;
57309;SDS011;43153;50.984;18.204;2023-04-29T00:29:36;20.10;;;7.00;;
57309;SDS011;43153;50.984;18.204;2023-04-29T00:32:04;15.30;;;6.60;;
57309;SDS011;43153;50.984;18.204;2023-04-29T00:34:30;16.80;;;7.10;;
57309;SDS011;43153;50.984;18.204;2023-04-29T00:36:57;18.10;;;7.00;;
57309;SDS011;43153;50.984;18.204;2023-04-29T00:39:24;17.40;;;6.80;;
57309;SDS011;43153;50.984;18.204;2023-04-29T00:41:51;19.20;;;7.90;;
57309;SDS011;43153;50.984;18.204;2023-04-29T00:44:17;18.70;;;7.20;;
57309;SDS011;43153;50.984;18.204;2023-04-29T00:46:44;14.90;;;6.40;;
57309;SDS011;43153;50.984;18.204;2023-04-29T00:49:10;18.90;;;7.00;;
57309;SDS011;43153;50.984;18.204;2023-04-29T00:51:37;17.50;;;6.40;;
57309;SDS011;43153;50.984;18.204;2023-04-29T00:54:03;13.90;;;6.40;;
57309;SDS011;43153;50.984;18.204;2023-04-29T00:56:29;15.60;;;6.40;;
57309;SDS011;43153;50.984;18.204;2023-04-29T00:58:57;14.30;;;6.20;;
57309;SDS011;43153;50.984;18.204;2023-04-29T01:01:24;14.50;;;6.80;;
57309;SDS011;43153;50.984;18.204;2023-04-29T01:03:52;13.20;;;5.80;;
57309;SDS011;43153;50.984;18.204;2023-04-29T01:06:33;15.70;;;6.40;;
57309;SDS011;43153;50.984;18.204;2023-04-29T01:14:46;14.20;;;6.90;;
57309;SDS011;43153;50.984;18.204;2023-04-29T01:17:18;17.90;;;6.90;;
57309;SDS011;43153;50.984;18.204;2023-04-29T01:19:47;16.40;;;6.10;;
57309;SDS011;43153;50.984;18.204;2023-04-29T01:22:15;14.40;;;6.50;;
57309;SDS011;43153;50.984;18.204;2023-04-29T01:24:46;13.20;;;6.00;;
57309;SDS011;43153;50.984;18.204;2023-04-29T01:27:22;17.00;;;6.20;;
57309;SDS011;43153;50.984;18.204;2023-04-29T01:33:26;13.60;;;6.20;;
57309;SDS011;43153;50.984;18.204;2023-04-29T01:43:49;13.20;;;6.10;;
57309;SDS011;43153;50.984;18.204;2023-04-29T01:46:16;14.40;;;5.40;;
57309;SDS011;43153;50.984;18.204;2023-04-29T01:48:46;19.60;;;6.50;;
57309;SDS011;43153;50.984;18.204;2023-04-29T01:51:12;11.50;;;5.90;;
57309;SDS011;43153;50.984;18.204;2023-04-29T01:53:38;17.10;;;6.00;;
57309;SDS011;43153;50.984;18.204;2023-04-29T01:56:07;19.80;;;7.40;;
57309;SDS011;43153;50.984;18.204;2023-04-29T01:58:34;15.20;;;6.20;;
57309;SDS011;43153;50.984;18.204;2023-04-29T02:01:00;16.10;;;6.30;;
57309;SDS011;43153;50.984;18.204;2023-04-29T02:03:27;15.70;;;6.30;;
57309;SDS011;43153;50.984;18.204;2023-04-29T02:05:55;14.30;;;5.20;;
57309;SDS011;43153;50.984;18.204;2023-04-29T02:08:22;16.70;;;6.70;;
57309;SDS011;43153;50.984;18.204;2023-04-29T02:10:51;13.90;;;7.10;;
57309;SDS011;43153;50.984;18.204;2023-04-29T02:13:18;15.70;;;6.00;;
57309;SDS011;43153;50.984;18.204;2023-04-29T02:15:46;14.30;;;6.40;;
57309;SDS011;43153;50.984;18.204;2023-04-29T02:18:12;11.50;;;5.60;;
57309;SDS011;43153;50.984;18.204;2023-04-29T02:20:40;14.90;;;6.50;;
57309;SDS011;43153;50.984;18.204;2023-04-29T03:03:23;18.80;;;7.10;;
57309;SDS011;43153;50.984;18.204;2023-04-29T03:05:54;18.50;;;7.40;;
57309;SDS011;43153;50.984;18.204;2023-04-29T03:08:23;17.20;;;7.80;;
57309;SDS011;43153;50.984;18.204;2023-04-29T03:13:21;17.70;;;7.30;;
57309;SDS011;43153;50.984;18.204;2023-04-29T03:15:57;18.90;;;7.40;;
57309;SDS011;43153;50.984;18.204;2023-04-29T03:18:25;18.30;;;7.40;;
57309;SDS011;43153;50.984;18.204;2023-04-29T03:20:51;16.10;;;6.90;;
57309;SDS011;43153;50.984;18.204;2023-04-29T03:23:17;18.90;;;7.80;;
57309;SDS011;43153;50.984;18.204;2023-04-29T03:25:42;17.10;;;7.10;;
57309;SDS011;43153;50.984;18.204;2023-04-29T03:28:08;20.70;;;7.20;;
57309;SDS011;43153;50.984;18.204;2023-04-29T03:30:36;15.00;;;8.20;;
57309;SDS011;43153;50.984;18.204;2023-04-29T03:33:02;17.80;;;8.00;;
57309;SDS011;43153;50.984;18.204;2023-04-29T03:35:28;21.10;;;8.90;;
57309;SDS011;43153;50.984;18.204;2023-04-29T03:37:54;17.30;;;8.40;;
57309;SDS011;43153;50.984;18.204;2023-04-29T03:40:22;20.50;;;9.80;;
57309;SDS011;43153;50.984;18.204;2023-04-29T03:42:49;18.20;;;8.70;;
57309;SDS011;43153;50.984;18.204;2023-04-29T03:45:14;21.20;;;9.10;;
57309;SDS011;43153;50.984;18.204;2023-04-29T03:47:41;19.30;;;8.70;;
57309;SDS011;43153;50.984;18.204;2023-04-29T03:50:07;20.20;;;9.20;;
57309;SDS011;43153;50.984;18.204;2023-04-29T03:52:34;20.10;;;9.60;;
57309;SDS011;43153;50.984;18.204;2023-04-29T03:55:04;18.50;;;8.90;;
57309;SDS011;43153;50.984;18.204;2023-04-29T03:57:31;18.40;;;8.60;;
57309;SDS011;43153;50.984;18.204;2023-04-29T03:59:57;25.50;;;8.60;;
57309;SDS011;43153;50.984;18.204;2023-04-29T04:02:23;21.60;;;8.60;;
57309;SDS011;43153;50.984;18.204;2023-04-29T04:04:49;21.80;;;9.40;;
57309;SDS011;43153;50.984;18.204;2023-04-29T04:07:15;19.70;;;7.80;;
57309;SDS011;43153;50.984;18.204;2023-04-29T04:09:41;18.40;;;8.00;;
57309;SDS011;43153;50.984;18.204;2023-04-29T04:12:07;17.50;;;8.70;;
57309;SDS011;43153;50.984;18.204;2023-04-29T04:14:35;22.50;;;9.50;;
57309;SDS011;43153;50.984;18.204;2023-04-29T04:17:02;19.20;;;9.00;;
57309;SDS011;43153;50.984;18.204;2023-04-29T04:19:29;19.10;;;8.40;;
57309;SDS011;43153;50.984;18.204;2023-04-29T04:21:55;18.30;;;8.50;;
57309;SDS011;43153;50.984;18.204;2023-04-29T04:24:22;23.90;;;9.30;;
57309;SDS011;43153;50.984;18.204;2023-04-29T04:26:51;20.00;;;9.30;;
57309;SDS011;43153;50.984;18.204;2023-04-29T04:29:18;18.80;;;8.70;;
57309;SDS011;43153;50.984;18.204;2023-04-29T04:31:45;19.20;;;8.70;;
57309;SDS011;43153;50.984;18.204;2023-04-29T04:34:11;21.60;;;9.90;;
57309;SDS011;43153;50.984;18.204;2023-04-29T04:36:37;18.50;;;8.60;;
57309;SDS011;43153;50.984;18.204;2023-04-29T04:39:08;18.10;;;8.20;;
57309;SDS011;43153;50.984;18.204;2023-04-29T04:41:40;21.30;;;8.70;;
57309;SDS011;43153;50.984;18.204;2023-04-29T04:44:09;21.80;;;9.20;;
57309;SDS011;43153;50.984;18.204;2023-04-29T04:46:42;19.90;;;9.00;;
57309;SDS011;43153;50.984;18.204;2023-04-29T04:49:11;19.40;;;9.30;;
57309;SDS011;43153;50.984;18.204;2023-04-29T04:51:55;22.00;;;9.40;;
57309;SDS011;43153;50.984;18.204;2023-04-29T04:54:21;22.90;;;10.00;;
57309;SDS011;43153;50.984;18.204;2023-04-29T04:56:47;18.60;;;9.10;;
57309;SDS011;43153;50.984;18.204;2023-04-29T04:59:13;21.50;;;9.30;;
57309;SDS011;43153;50.984;18.204;2023-04-29T05:01:41;19.80;;;9.30;;
57309;SDS011;43153;50.984;18.204;2023-04-29T05:04:09;20.60;;;9.10;;
57309;SDS011;43153;50.984;18.204;2023-04-29T05:06:37;20.20;;;9.60;;
57309;SDS011;43153;50.984;18.204;2023-04-29T05:09:04;20.20;;;8.60;;
57309;SDS011;43153;50.984;18.204;2023-04-29T05:11:36;18.40;;;8.60;;
57309;SDS011;43153;50.984;18.204;2023-04-29T05:14:05;17.70;;;9.00;;
57309;SDS011;43153;50.984;18.204;2023-04-29T05:16:34;16.70;;;8.70;;
57309;SDS011;43153;50.984;18.204;2023-04-29T05:19:00;20.90;;;8.80;;
57309;SDS011;43153;50.984;18.204;2023-04-29T05:21:36;20.10;;;9.30;;
57309;SDS011;43153;50.984;18.204;2023-04-29T05:24:11;19.70;;;8.90;;
57309;SDS011;43153;50.984;18.204;2023-04-29T05:26:38;15.70;;;7.90;;
57309;SDS011;43153;50.984;18.204;2023-04-29T05:29:15;16.10;;;8.40;;
57309;SDS011;43153;50.984;18.204;2023-04-29T05:31:44;16.90;;;8.00;;
57309;SDS011;43153;50.984;18.204;2023-04-29T05:36:48;21.60;;;9.60;;
57309;SDS011;43153;50.984;18.204;2023-04-29T05:39:13;21.40;;;9.10;;
57309;SDS011;43153;50.984;18.204;2023-04-29T05:41:40;19.40;;;8.90;;
57309;SDS011;43153;50.984;18.204;2023-04-29T05:44:23;20.50;;;8.80;;
57309;SDS011;43153;50.984;18.204;2023-04-29T05:46:55;19.70;;;10.00;;
57309;SDS011;43153;50.984;18.204;2023-04-29T05:49:21;20.30;;;8.80;;
57309;SDS011;43153;50.984;18.204;2023-04-29T05:54:31;24.70;;;9.20;;
57309;SDS011;43153;50.984;18.204;2023-04-29T05:59:14;21.00;;;9.70;;
57309;SDS011;43153;50.984;18.204;2023-04-29T06:01:52;17.00;;;9.10;;
57309;SDS011;43153;50.984;18.204;2023-04-29T06:04:23;20.30;;;7.70;;
57309;SDS011;43153;50.984;18.204;2023-04-29T06:07:05;16.60;;;7.90;;
57309;SDS011;43153;50.984;18.204;2023-04-29T06:09:41;19.40;;;8.70;;
57309;SDS011;43153;50.984;18.204;2023-04-29T06:12:12;22.50;;;8.70;;
57309;SDS011;43153;50.984;18.204;2023-04-29T06:14:45;16.30;;;7.80;;
57309;SDS011;43153;50.984;18.204;2023-04-29T06:17:15;15.40;;;7.00;;
57309;SDS011;43153;50.984;18.204;2023-04-29T06:19:50;18.90;;;7.90;;
57309;SDS011;43153;50.984;18.204;2023-04-29T06:22:18;18.90;;;7.10;;
57309;SDS011;43153;50.984;18.204;2023-04-29T06:24:55;16.60;;;8.70;;
57309;SDS011;43153;50.984;18.204;2023-04-29T06:27:23;18.10;;;8.60;;
57309;SDS011;43153;50.984;18.204;2023-04-29T06:29:49;17.40;;;7.70;;
57309;SDS011;43153;50.984;18.204;2023-04-29T06:32:22;19.90;;;8.00;;
57309;SDS011;43153;50.984;18.204;2023-04-29T06:35:05;19.50;;;8.00;;
57309;SDS011;43153;50.984;18.204;2023-04-29T06:38:00;23.70;;;7.80;;
57309;SDS011;43153;50.984;18.204;2023-04-29T06:40:51;17.80;;;7.80;;
57309;SDS011;43153;50.984;18.204;2023-04-29T06:43:18;19.70;;;8.50;;
57309;SDS011;43153;50.984;18.204;2023-04-29T06:46:00;12.70;;;6.50;;
57309;SDS011;43153;50.984;18.204;2023-04-29T06:48:27;14.10;;;6.90;;
57309;SDS011;43153;50.984;18.204;2023-04-29T06:51:13;15.60;;;6.80;;
57309;SDS011;43153;50.984;18.204;2023-04-29T06:53:49;16.20;;;7.10;;
57309;SDS011;43153;50.984;18.204;2023-04-29T06:56:17;14.50;;;7.50;;
57309;SDS011;43153;50.984;18.204;2023-04-29T06:59:12;17.30;;;7.40;;
57309;SDS011;43153;50.984;18.204;2023-04-29T07:01:40;22.50;;;7.80;;
57309;SDS011;43153;50.984;18.204;2023-04-29T07:04:06;15.50;;;7.40;;
57309;SDS011;43153;50.984;18.204;2023-04-29T07:06:39;16.00;;;7.80;;
57309;SDS011;43153;50.984;18.204;2023-04-29T07:09:15;20.70;;;7.70;;
57309;SDS011;43153;50.984;18.204;2023-04-29T07:11:47;19.20;;;7.40;;
57309;SDS011;43153;50.984;18.204;2023-04-29T07:14:23;16.00;;;7.10;;
57309;SDS011;43153;50.984;18.204;2023-04-29T07:16:52;17.90;;;7.70;;
57309;SDS011;43153;50.984;18.204;2023-04-29T07:19:23;14.90;;;7.30;;
57309;SDS011;43153;50.984;18.204;2023-04-29T07:22:11;15.10;;;8.10;;
57309;SDS011;43153;50.984;18.204;2023-04-29T07:24:54;18.40;;;7.90;;
57309;SDS011;43153;50.984;18.204;2023-04-29T07:27:26;17.70;;;8.20;;
57309;SDS011;43153;50.984;18.204;2023-04-29T07:29:58;13.60;;;7.40;;
57309;SDS011;43153;50.984;18.204;2023-04-29T07:32:31;16.00;;;7.70;;
57309;SDS011;43153;50.984;18.204;2023-04-29T07:34:58;13.70;;;6.70;;
57309;SDS011;43153;50.984;18.204;2023-04-29T07:37:28;16.10;;;7.50;;
57309;SDS011;43153;50.984;18.204;2023-04-29T07:40:00;15.10;;;7.40;;
57309;SDS011;43153;50.984;18.204;2023-04-29T07:42:31;17.50;;;7.30;;
57309;SDS011;43153;50.984;18.204;2023-04-29T07:45:00;13.80;;;6.90;;
57309;SDS011;43153;50.984;18.204;2023-04-29T07:47:35;16.70;;;7.30;;
57309;SDS011;43153;50.984;18.204;2023-04-29T07:50:01;20.90;;;9.40;;
57309;SDS011;43153;50.984;18.204;2023-04-29T07:52:27;15.60;;;7.70;;
57309;SDS011;43153;50.984;18.204;2023-04-29T07:54:58;16.60;;;7.90;;
57309;SDS011;43153;50.984;18.204;2023-04-29T07:57:38;15.70;;;7.20;;
57309;SDS011;43153;50.984;18.204;2023-04-29T08:00:05;15.50;;;7.40;;
57309;SDS011;43153;50.984;18.204;2023-04-29T08:02:52;14.00;;;7.00;;
57309;SDS011;43153;50.984;18.204;2023-04-29T08:05:21;15.80;;;7.60;;
57309;SDS011;43153;50.984;18.204;2023-04-29T08:08:07;16.00;;;7.20;;
57309;SDS011;43153;50.984;18.204;2023-04-29T08:10:45;18.70;;;8.50;;
57309;SDS011;43153;50.984;18.204;2023-04-29T08:13:28;17.40;;;8.20;;
57309;SDS011;43153;50.984;18.204;2023-04-29T08:15:53;17.30;;;7.80;;
57309;SDS011;43153;50.984;18.204;2023-04-29T08:18:44;17.30;;;8.00;;
57309;SDS011;43153;50.984;18.204;2023-04-29T08:21:15;15.30;;;7.10;;
57309;SDS011;43153;50.984;18.204;2023-04-29T08:23:49;13.50;;;7.60;;
57309;SDS011;43153;50.984;18.204;2023-04-29T08:26:20;15.90;;;7.20;;
57309;SDS011;43153;50.984;18.204;2023-04-29T08:28:50;13.60;;;7.70;;
57309;SDS011;43153;50.984;18.204;2023-04-29T08:31:24;14.80;;;7.00;;
57309;SDS011;43153;50.984;18.204;2023-04-29T08:33:55;13.80;;;6.90;;
57309;SDS011;43153;50.984;18.204;2023-04-29T08:36:28;13.40;;;6.40;;
57309;SDS011;43153;50.984;18.204;2023-04-29T08:39:04;15.70;;;6.50;;
57309;SDS011;43153;50.984;18.204;2023-04-29T08:41:31;14.90;;;7.30;;
57309;SDS011;43153;50.984;18.204;2023-04-29T08:43:59;17.40;;;7.10;;
57309;SDS011;43153;50.984;18.204;2023-04-29T08:46:29;15.40;;;6.50;;
57309;SDS011;43153;50.984;18.204;2023-04-29T08:49:04;14.20;;;6.60;;
57309;SDS011;43153;50.984;18.204;2023-04-29T08:51:32;15.20;;;6.60;;
57309;SDS011;43153;50.984;18.204;2023-04-29T09:32:19;12.40;;;5.90;;
57309;SDS011;43153;50.984;18.204;2023-04-29T09:37:53;15.50;;;6.30;;
57309;SDS011;43153;50.984;18.204;2023-04-29T09:40:44;13.50;;;6.30;;
57309;SDS011;43153;50.984;18.204;2023-04-29T09:43:32;16.00;;;6.00;;
57309;SDS011;43153;50.984;18.204;2023-04-29T09:46:35;15.40;;;7.00;;
57309;SDS011;43153;50.984;18.204;2023-04-29T09:49:26;15.00;;;6.30;;
57309;SDS011;43153;50.984;18.204;2023-04-29T09:52:12;14.20;;;6.70;;
57309;SDS011;43153;50.984;18.204;2023-04-29T09:54:43;14.60;;;6.70;;
57309;SDS011;43153;50.984;18.204;2023-04-29T09:57:11;12.50;;;5.60;;
57309;SDS011;43153;50.984;18.204;2023-04-29T09:59:41;14.30;;;6.40;;
57309;SDS011;43153;50.984;18.204;2023-04-29T10:02:19;14.70;;;6.80;;
57309;SDS011;43153;50.984;18.204;2023-04-29T10:05:05;13.00;;;6.30;;
57309;SDS011;43153;50.984;18.204;2023-04-29T10:07:37;11.70;;;5.50;;
57309;SDS011;43153;50.984;18.204;2023-04-29T10:10:11;12.80;;;6.10;;
57309;SDS011;43153;50.984;18.204;2023-04-29T10:12:47;10.40;;;5.70;;
57309;SDS011;43153;50.984;18.204;2023-04-29T10:17:58;11.90;;;5.30;;
57309;SDS011;43153;50.984;18.204;2023-04-29T10:20:35;12.70;;;4.70;;
57309;SDS011;43153;50.984;18.204;2023-04-29T10:23:07;14.80;;;6.00;;
57309;SDS011;43153;50.984;18.204;2023-04-29T10:25:43;13.40;;;5.70;;
57309;SDS011;43153;50.984;18.204;2023-04-29T10:28:14;13.90;;;5.70;;
57309;SDS011;43153;50.984;18.204;2023-04-29T10:30:42;12.40;;;6.10;;
57309;SDS011;43153;50.984;18.204;2023-04-29T10:33:19;11.30;;;6.00;;
57309;SDS011;43153;50.984;18.204;2023-04-29T10:35:54;11.00;;;6.10;;
57309;SDS011;43153;50.984;18.204;2023-04-29T10:38:23;11.00;;;6.50;;
57309;SDS011;43153;50.984;18.204;2023-04-29T10:41:22;13.80;;;6.70;;
57309;SDS011;43153;50.984;18.204;2023-04-29T10:44:06;12.70;;;6.30;;
57309;SDS011;43153;50.984;18.204;2023-04-29T10:46:37;14.30;;;7.00;;
57309;SDS011;43153;50.984;18.204;2023-04-29T10:49:07;12.20;;;7.00;;
57309;SDS011;43153;50.984;18.204;2023-04-29T10:51:43;13.20;;;6.70;;
57309;SDS011;43153;50.984;18.204;2023-04-29T10:54:15;11.70;;;5.70;;
57309;SDS011;43153;50.984;18.204;2023-04-29T10:56:54;12.80;;;5.80;;
57309;SDS011;43153;50.984;18.204;2023-04-29T11:02:18;12.90;;;5.90;;
57309;SDS011;43153;50.984;18.204;2023-04-29T11:05:06;12.70;;;6.60;;
57309;SDS011;43153;50.984;18.204;2023-04-29T11:07:38;14.70;;;7.60;;
57309;SDS011;43153;50.984;18.204;2023-04-29T11:10:06;14.00;;;7.40;;
57309;SDS011;43153;50.984;18.204;2023-04-29T11:12:33;14.30;;;6.50;;
57309;SDS011;43153;50.984;18.204;2023-04-29T11:15:03;15.70;;;7.30;;
57309;SDS011;43153;50.984;18.204;2023-04-29T11:17:36;14.30;;;7.50;;
57309;SDS011;43153;50.984;18.204;2023-04-29T11:20:03;15.30;;;6.90;;
57309;SDS011;43153;50.984;18.204;2023-04-29T11:22:31;13.80;;;7.00;;
57309;SDS011;43153;50.984;18.204;2023-04-29T11:25:04;13.90;;;6.80;;
57309;SDS011;43153;50.984;18.204;2023-04-29T11:27:37;14.20;;;7.10;;
57309;SDS011;43153;50.984;18.204;2023-04-29T11:30:05;15.40;;;7.10;;
57309;SDS011;43153;50.984;18.204;2023-04-29T11:32:37;15.90;;;6.70;;
57309;SDS011;43153;50.984;18.204;2023-04-29T11:35:12;12.80;;;7.00;;
57309;SDS011;43153;50.984;18.204;2023-04-29T11:37:43;14.00;;;7.70;;
57309;SDS011;43153;50.984;18.204;2023-04-29T11:40:12;15.00;;;7.60;;
57309;SDS011;43153;50.984;18.204;2023-04-29T11:42:46;16.40;;;7.80;;
57309;SDS011;43153;50.984;18.204;2023-04-29T11:45:17;14.10;;;7.50;;
57309;SDS011;43153;50.984;18.204;2023-04-29T11:47:51;14.00;;;7.10;;
57309;SDS011;43153;50.984;18.204;2023-04-29T11:50:17;15.50;;;7.00;;
57309;SDS011;43153;50.984;18.204;2023-04-29T11:52:51;13.50;;;6.60;;
57309;SDS011;43153;50.984;18.204;2023-04-29T11:55:18;15.10;;;7.30;;
57309;SDS011;43153;50.984;18.204;2023-04-29T11:57:52;14.00;;;6.90;;
57309;SDS011;43153;50.984;18.204;2023-04-29T12:00:18;15.80;;;7.50;;
57309;SDS011;43153;50.984;18.204;2023-04-29T12:02:48;13.10;;;6.30;;
57309;SDS011;43153;50.984;18.204;2023-04-29T12:05:14;16.10;;;8.40;;
57309;SDS011;43153;50.984;18.204;2023-04-29T12:07:41;17.20;;;8.70;;
57309;SDS011;43153;50.984;18.204;2023-04-29T12:10:10;18.40;;;8.90;;
57309;SDS011;43153;50.984;18.204;2023-04-29T12:12:37;14.90;;;8.20;;
57309;SDS011;43153;50.984;18.204;2023-04-29T12:15:07;16.40;;;9.60;;
57309;SDS011;43153;50.984;18.204;2023-04-29T12:17:36;18.80;;;9.90;;
57309;SDS011;43153;50.984;18.204;2023-04-29T12:20:07;19.60;;;9.60;;
57309;SDS011;43153;50.984;18.204;2023-04-29T12:22:35;18.60;;;9.90;;
57309;SDS011;43153;50.984;18.204;2023-04-29T12:25:05;16.20;;;8.80;;
57309;SDS011;43153;50.984;18.204;2023-04-29T12:27:34;15.70;;;8.80;;
57309;SDS011;43153;50.984;18.204;2023-04-29T12:30:14;17.70;;;9.70;;
57309;SDS011;43153;50.984;18.204;2023-04-29T12:32:41;16.00;;;9.60;;
57309;SDS011;43153;50.984;18.204;2023-04-29T12:35:18;13.50;;;7.60;;
57309;SDS011;43153;50.984;18.204;2023-04-29T12:37:49;13.80;;;7.20;;
57309;SDS011;43153;50.984;18.204;2023-04-29T12:40:19;13.00;;;7.70;;
57309;SDS011;43153;50.984;18.204;2023-04-29T12:42:45;11.70;;;6.40;;
57309;SDS011;43153;50.984;18.204;2023-04-29T12:48:18;18.20;;;8.50;;
57309;SDS011;43153;50.984;18.204;2023-04-29T12:50:51;17.70;;;9.00;;
57309;SDS011;43153;50.984;18.204;2023-04-29T12:53:29;17.00;;;8.70;;
57309;SDS011;43153;50.984;18.204;2023-04-29T12:55:58;15.50;;;9.00;;
57309;SDS011;43153;50.984;18.204;2023-04-29T12:58:31;16.80;;;9.10;;
57309;SDS011;43153;50.984;18.204;2023-04-29T13:01:25;15.00;;;8.30;;
57309;SDS011;43153;50.984;18.204;2023-04-29T13:03:51;13.90;;;8.30;;
57309;SDS011;43153;50.984;18.204;2023-04-29T13:06:18;12.10;;;7.80;;
57309;SDS011;43153;50.984;18.204;2023-04-29T13:08:45;13.00;;;6.70;;
57309;SDS011;43153;50.984;18.204;2023-04-29T13:11:12;16.30;;;7.60;;
57309;SDS011;43153;50.984;18.204;2023-04-29T13:13:38;11.80;;;6.60;;
57309;SDS011;43153;50.984;18.204;2023-04-29T13:16:05;13.20;;;7.40;;
57309;SDS011;43153;50.984;18.204;2023-04-29T13:18:37;13.20;;;7.40;;
57309;SDS011;43153;50.984;18.204;2023-04-29T13:21:09;12.80;;;7.30;;
57309;SDS011;43153;50.984;18.204;2023-04-29T13:23:39;13.30;;;6.60;;
57309;SDS011;43153;50.984;18.204;2023-04-29T13:26:09;10.80;;;6.40;;
57309;SDS011;43153;50.984;18.204;2023-04-29T13:28:35;9.80;;;5.70;;
57309;SDS011;43153;50.984;18.204;2023-04-29T13:31:01;10.20;;;5.90;;
57309;SDS011;43153;50.984;18.204;2023-04-29T13:33:28;15.70;;;8.60;;
57309;SDS011;43153;50.984;18.204;2023-04-29T13:36:04;10.30;;;5.00;;
57309;SDS011;43153;50.984;18.204;2023-04-29T13:38:42;11.70;;;6.10;;
57309;SDS011;43153;50.984;18.204;2023-04-29T13:41:10;9.90;;;4.90;;
57309;SDS011;43153;50.984;18.204;2023-04-29T13:43:39;9.20;;;4.60;;
57309;SDS011;43153;50.984;18.204;2023-04-29T13:46:21;11.50;;;6.30;;
57309;SDS011;43153;50.984;18.204;2023-04-29T13:48:49;7.40;;;4.30;;
57309;SDS011;43153;50.984;18.204;2023-04-29T13:51:16;9.20;;;4.30;;
57309;SDS011;43153;50.984;18.204;2023-04-29T13:53:42;8.30;;;4.50;;
57309;SDS011;43153;50.984;18.204;2023-04-29T13:56:08;13.30;;;5.80;;
57309;SDS011;43153;50.984;18.204;2023-04-29T13:58:36;11.60;;;6.40;;
57309;SDS011;43153;50.984;18.204;2023-04-29T14:01:05;10.50;;;5.70;;
57309;SDS011;43153;50.984;18.204;2023-04-29T14:03:35;11.20;;;5.10;;
57309;SDS011;43153;50.984;18.204;2023-04-29T14:06:05;7.90;;;4.20;;
57309;SDS011;43153;50.984;18.204;2023-04-29T14:08:32;7.70;;;3.50;;
57309;SDS011;43153;50.984;18.204;2023-04-29T14:11:02;8.70;;;4.20;;
57309;SDS011;43153;50.984;18.204;2023-04-29T14:13:29;11.90;;;5.40;;
57309;SDS011;43153;50.984;18.204;2023-04-29T14:16:01;10.80;;;5.40;;
57309;SDS011;43153;50.984;18.204;2023-04-29T14:18:34;9.20;;;4.90;;
57309;SDS011;43153;50.984;18.204;2023-04-29T14:21:03;8.80;;;5.10;;
57309;SDS011;43153;50.984;18.204;2023-04-29T14:23:36;7.80;;;3.80;;
57309;SDS011;43153;50.984;18.204;2023-04-29T14:26:06;5.40;;;2.40;;
57309;SDS011;43153;50.984;18.204;2023-04-29T14:28:42;4.00;;;2.00;;
57309;SDS011;43153;50.984;18.204;2023-04-29T14:31:17;6.40;;;1.80;;
57309;SDS011;43153;50.984;18.204;2023-04-29T14:33:47;5.50;;;2.10;;
57309;SDS011;43153;50.984;18.204;2023-04-29T14:36:19;8.10;;;2.90;;
57309;SDS011;43153;50.984;18.204;2023-04-29T14:38:45;7.00;;;3.40;;
57309;SDS011;43153;50.984;18.204;2023-04-29T14:41:12;5.60;;;2.40;;
57309;SDS011;43153;50.984;18.204;2023-04-29T14:43:40;5.30;;;2.20;;
57309;SDS011;43153;50.984;18.204;2023-04-29T14:46:11;5.70;;;2.40;;
57309;SDS011;43153;50.984;18.204;2023-04-29T14:48:39;4.40;;;2.20;;
57309;SDS011;43153;50.984;18.204;2023-04-29T14:51:08;4.10;;;2.10;;
57309;SDS011;43153;50.984;18.204;2023-04-29T14:53:37;5.10;;;2.20;;
57309;SDS011;43153;50.984;18.204;2023-04-29T14:56:05;8.10;;;3.60;;
57309;SDS011;43153;50.984;18.204;2023-04-29T14:58:34;8.70;;;4.40;;
57309;SDS011;43153;50.984;18.204;2023-04-29T15:01:06;9.50;;;4.10;;
57309;SDS011;43153;50.984;18.204;2023-04-29T15:03:44;7.50;;;3.60;;
57309;SDS011;43153;50.984;18.204;2023-04-29T15:06:10;7.40;;;3.60;;
57309;SDS011;43153;50.984;18.204;2023-04-29T15:08:39;6.90;;;3.20;;
57309;SDS011;43153;50.984;18.204;2023-04-29T15:11:05;7.00;;;3.60;;
57309;SDS011;43153;50.984;18.204;2023-04-29T15:13:33;8.30;;;4.40;;
57309;SDS011;43153;50.984;18.204;2023-04-29T15:16:18;10.00;;;4.60;;
57309;SDS011;43153;50.984;18.204;2023-04-29T15:18:44;10.10;;;4.90;;
57309;SDS011;43153;50.984;18.204;2023-04-29T15:21:20;8.00;;;4.00;;
57309;SDS011;43153;50.984;18.204;2023-04-29T16:01:31;17.60;;;9.30;;
57309;SDS011;43153;50.984;18.204;2023-04-29T16:04:09;16.30;;;8.30;;
57309;SDS011;43153;50.984;18.204;2023-04-29T16:06:51;16.50;;;8.50;;
57309;SDS011;43153;50.984;18.204;2023-04-29T16:09:19;24.60;;;8.60;;
57309;SDS011;43153;50.984;18.204;2023-04-29T16:11:52;17.80;;;8.00;;
57309;SDS011;43153;50.984;18.204;2023-04-29T16:14:30;15.20;;;7.80;;
57309;SDS011;43153;50.984;18.204;2023-04-29T16:17:00;15.90;;;8.60;;
57309;SDS011;43153;50.984;18.204;2023-04-29T16:19:27;18.40;;;8.90;;
57309;SDS011;43153;50.984;18.204;2023-04-29T16:21:53;17.90;;;9.20;;
57309;SDS011;43153;50.984;18.204;2023-04-29T16:24:24;17.30;;;9.70;;
57309;SDS011;43153;50.984;18.204;2023-04-29T16:26:49;17.70;;;9.20;;
57309;SDS011;43153;50.984;18.204;2023-04-29T16:29:15;21.60;;;10.30;;
57309;SDS011;43153;50.984;18.204;2023-04-29T16:31:42;20.60;;;10.80;;
57309;SDS011;43153;50.984;18.204;2023-04-29T16:34:12;24.20;;;12.00;;
57309;SDS011;43153;50.984;18.204;2023-04-29T16:39:07;20.30;;;10.60;;
57309;SDS011;43153;50.984;18.204;2023-04-29T16:41:40;19.70;;;11.00;;
57309;SDS011;43153;50.984;18.204;2023-04-29T16:44:05;26.00;;;12.30;;
57309;SDS011;43153;50.984;18.204;2023-04-29T16:46:35;37.90;;;18.60;;
57309;SDS011;43153;50.984;18.204;2023-04-29T16:49:01;48.20;;;26.20;;
57309;SDS011;43153;50.984;18.204;2023-04-29T16:51:28;44.20;;;22.20;;
57309;SDS011;43153;50.984;18.204;2023-04-29T16:53:55;47.20;;;23.00;;
57309;SDS011;43153;50.984;18.204;2023-04-29T16:56:21;37.30;;;18.80;;
57309;SDS011;43153;50.984;18.204;2023-04-29T16:58:48;25.40;;;14.30;;
57309;SDS011;43153;50.984;18.204;2023-04-29T17:01:14;29.30;;;15.70;;
57309;SDS011;43153;50.984;18.204;2023-04-29T17:03:42;23.40;;;13.50;;
57309;SDS011;43153;50.984;18.204;2023-04-29T17:06:09;26.50;;;14.70;;
57309;SDS011;43153;50.984;18.204;2023-04-29T17:08:36;28.60;;;14.70;;
57309;SDS011;43153;50.984;18.204;2023-04-29T17:11:03;18.80;;;8.60;;
57309;SDS011;43153;50.984;18.204;2023-04-29T17:13:32;6.70;;;2.40;;
57309;SDS011;43153;50.984;18.204;2023-04-29T17:16:01;5.10;;;1.80;;
57309;SDS011;43153;50.984;18.204;2023-04-29T17:18:28;6.50;;;1.80;;
57309;SDS011;43153;50.984;18.204;2023-04-29T17:20:54;4.70;;;1.40;;